Portada
METAR-TAF:

METAR-TAF

Aeropuertos :

Humberside, Inglaterra

latitud: 53-35N, longitud: 000-21W, altitud: 31 m

Observación

El informe se hizo hace 21 minutos, a las 08:20 UTC
Viento 13 kt del suroeste
Temperatura 11°C
Humedad 76%
Presión 1012 hPa
Visibilidad 10 km o más
Nubes dispersas a una altura de 2600 ft
Cielo nuboso a una altura de 3200 ft

METAR: EGNJ 240820Z 23013KT 9999 SCT026 BKN032 11/07 Q1012

Hora: 09:41 (08:41 UTC)

Pronóstico

El informe se hizo hace 39 minutos, a las 08:02 UTC
Pronóstico válido del 24 a las 09 UTC al 24 a las 18 UTC
Viento 12 kt del suroeste
Visibilidad 10 km o más
Escasas nubes a una altura de 3500 ft
Temporalmente
del 24 a las 12 UTC al 24 a las 18 UTC
Visibilidad: 8000 m
lluvia ligera
Probabilidad 40% :
Temporalmente
del 24 a las 13 UTC al 24 a las 18 UTC
Cielo nuboso a una altura de 1200 ft
lluvia

TAF: EGNJ 240802Z 2409/2418 23012KT 9999 FEW035 TEMPO 2412/2418 8000 -RA PROB40 TEMPO 2413/2418 RA BKN012

Observaciones y pronósticos meteorológicos de más de 4000 aeropuertos (mensajes METAR y TAF).

Los puntos amarillos y rojos representan las estaciones disponibles.

Ponga el ratón en el punto deseado para ver el nombre de la estación.

Haga clic para ver las observaciones y los pronósticos meteorológicos.

Para cambiar el mapa : haga clic en los botones verdes con una cruz de color negro para hacer un zoom, en el botón verde con un guión para alejar o en las flechas verdes para mapas adyacentes.


METAR-TAF: